Time;durP1;ratioP1;P1;durP2;ratioP2;P2;SDS_P1;SDS_P2;PMS_P1;PMS_P2;Temp;Humidity;BMP_temperature;BMP_pressure;BME280_temperature;BME280_humidity;BME280_pressure;Samples;Min_cycle;Max_cycle;Signal;HPM_P1;HPM_P2
2021/12/01 00:01:48;;;;;;;0.30;0.20;;;5.00;78.20;;;;;;5055805;28;20104;-77
2021/12/01 00:04:14;;;;;;;0.20;0.20;;;5.00;78.20;;;;;;5055560;28;20029;-76
2021/12/01 00:06:39;;;;;;;1.05;0.20;;;5.00;78.30;;;;;;5055463;28;20029;-75
2021/12/01 00:09:05;;;;;;;0.20;0.10;;;5.00;77.80;;;;;;5055643;28;20144;-80
2021/12/01 00:11:30;;;;;;;0.28;0.10;;;5.00;77.60;;;;;;5055263;28;20127;-76
2021/12/01 00:13:56;;;;;;;0.28;0.20;;;5.00;77.80;;;;;;5055359;28;20454;-76
2021/12/01 00:16:23;;;;;;;0.08;0.08;;;5.00;78.00;;;;;;5055416;28;20031;-75
2021/12/01 00:18:48;;;;;;;0.17;0.13;;;5.00;77.90;;;;;;5037371;28;20059;-75
2021/12/01 00:21:14;;;;;;;1.75;0.30;;;5.00;78.10;;;;;;5055173;28;20461;-75
2021/12/01 00:23:39;;;;;;;0.20;0.20;;;5.00;78.30;;;;;;5054944;28;20032;-75
2021/12/01 00:26:06;;;;;;;0.32;0.22;;;5.00;78.30;;;;;;5055675;28;20025;-78
2021/12/01 00:28:31;;;;;;;0.10;0.10;;;5.00;78.50;;;;;;5054800;28;20041;-76
2021/12/01 00:30:58;;;;;;;0.20;0.20;;;5.00;78.50;;;;;;5054961;28;20022;-76
2021/12/01 00:33:24;;;;;;;1.75;0.17;;;5.00;78.50;;;;;;5054916;28;20491;-78
2021/12/01 00:35:54;;;;;;;0.10;0.10;;;5.10;78.70;;;;;;5037109;28;20025;-76
2021/12/01 00:38:21;;;;;;;0.38;0.20;;;5.00;78.80;;;;;;5054848;28;20174;-75
2021/12/01 00:40:48;;;;;;;0.28;0.22;;;5.00;78.60;;;;;;5037052;28;20021;-78
2021/12/01 00:43:17;;;;;;;0.10;0.10;;;5.00;78.80;;;;;;5054786;28;20079;-76
2021/12/01 00:45:53;;;;;;;1.17;0.20;;;5.00;79.10;;;;;;5054376;28;20021;-75
2021/12/01 00:48:19;;;;;;;0.10;0.10;;;5.00;79.10;;;;;;5054721;28;20056;-75
2021/12/01 00:50:46;;;;;;;0.15;0.15;;;4.90;79.30;;;;;;5054574;28;20044;-75
2021/12/01 00:53:12;;;;;;;1.02;0.28;;;4.90;79.40;;;;;;5036498;28;20033;-75
2021/12/01 00:55:38;;;;;;;0.20;0.20;;;5.00;79.20;;;;;;5054449;28;20021;-75
2021/12/01 00:58:04;;;;;;;0.30;0.20;;;5.00;79.40;;;;;;5054477;28;20067;-76
2021/12/01 01:00:31;;;;;;;0.80;0.20;;;4.90;79.50;;;;;;5053039;28;20021;-76
2021/12/01 01:02:59;;;;;;;0.30;0.30;;;4.90;79.40;;;;;;5036482;28;20546;-75
2021/12/01 01:05:25;;;;;;;1.17;0.20;;;4.90;79.50;;;;;;5054403;28;20125;-75
2021/12/01 01:07:52;;;;;;;0.30;0.20;;;4.90;79.50;;;;;;5054171;28;20095;-78
2021/12/01 01:18:43;;;;;;;0.20;0.17;;;5.00;79.50;;;;;;5054004;28;20098;-75
2021/12/01 01:21:10;;;;;;;0.30;0.30;;;4.90;80.30;;;;;;5053952;28;20028;-76
2021/12/01 01:23:37;;;;;;;0.30;0.30;;;4.90;80.20;;;;;;5053835;28;20029;-75
2021/12/01 01:26:09;;;;;;;0.22;0.20;;;5.00;79.20;;;;;;5053952;28;20473;-75
2021/12/01 01:28:35;;;;;;;0.20;0.20;;;4.90;79.40;;;;;;5053631;28;20060;-76
2021/12/01 01:31:02;;;;;;;0.80;0.30;;;4.90;79.40;;;;;;5053590;28;20028;-75
2021/12/01 01:33:27;;;;;;;0.32;0.32;;;4.90;79.70;;;;;;5053668;28;20068;-76
2021/12/01 01:35:53;;;;;;;0.20;0.20;;;4.90;79.80;;;;;;5053660;28;20044;-75
2021/12/01 01:38:19;;;;;;;0.82;0.38;;;4.90;79.80;;;;;;5053787;28;20028;-77
2021/12/01 01:40:45;;;;;;;0.45;0.30;;;4.90;79.40;;;;;;5053781;28;20440;-74
2021/12/01 01:43:12;;;;;;;0.13;0.13;;;4.90;79.20;;;;;;5053673;28;20016;-74
2021/12/01 01:45:38;;;;;;;0.17;0.17;;;4.80;79.00;;;;;;5053557;28;20505;-75
2021/12/01 01:48:08;;;;;;;0.20;0.20;;;4.90;79.00;;;;;;5053606;28;20446;-76
2021/12/01 01:50:36;;;;;;;0.52;0.20;;;4.90;79.10;;;;;;5053425;28;20020;-75
2021/12/01 01:53:08;;;;;;;0.20;0.10;;;5.00;78.90;;;;;;5053464;28;20041;-75
2021/12/01 01:55:38;;;;;;;0.30;0.20;;;4.90;78.90;;;;;;5054010;28;20017;-75
2021/12/01 01:58:04;;;;;;;0.15;0.15;;;4.90;79.00;;;;;;5053303;28;20029;-75
2021/12/01 02:00:34;;;;;;;0.17;0.17;;;4.90;79.10;;;;;;5053204;28;20028;-76
2021/12/01 02:03:00;;;;;;;0.10;0.10;;;4.90;79.30;;;;;;5035748;28;20385;-76
2021/12/01 02:05:28;;;;;;;0.38;0.20;;;4.90;79.60;;;;;;5053563;28;20021;-75
2021/12/01 02:07:54;;;;;;;0.35;0.30;;;5.00;79.50;;;;;;5053330;28;20060;-76
2021/12/01 02:10:20;;;;;;;0.30;0.30;;;5.00;79.80;;;;;;5053332;28;20018;-76
2021/12/01 02:12:46;;;;;;;0.22;0.20;;;4.90;80.00;;;;;;5041218;28;20036;-76
2021/12/01 02:15:12;;;;;;;0.22;0.22;;;4.90;80.00;;;;;;5053358;28;20432;-76
2021/12/01 02:17:38;;;;;;;0.70;0.30;;;5.00;80.00;;;;;;5053132;28;20078;-76
2021/12/01 02:20:22;;;;;;;0.20;0.10;;;5.00;80.20;;;;;;5053068;28;20376;-76
2021/12/01 02:22:48;;;;;;;0.32;0.30;;;5.00;80.00;;;;;;5052925;28;20017;-76
2021/12/01 02:25:14;;;;;;;0.20;0.20;;;5.00;80.40;;;;;;5052910;28;20021;-76
2021/12/01 02:27:40;;;;;;;1.35;0.20;;;4.90;80.60;;;;;;5052960;28;20021;-76
2021/12/01 02:30:06;;;;;;;0.20;0.20;;;4.90;80.40;;;;;;5052741;28;20099;-76
2021/12/01 02:32:32;;;;;;;0.30;0.30;;;4.90;80.60;;;;;;5052813;28;20111;-76
2021/12/01 02:34:57;;;;;;;0.57;0.50;;;4.90;80.80;;;;;;5052929;28;20056;-76
2021/12/01 02:37:23;;;;;;;0.50;0.35;;;4.90;81.10;;;;;;5052873;28;20025;-77
2021/12/01 02:39:53;;;;;;;0.88;0.63;;;4.90;81.30;;;;;;5035216;28;20022;-76
2021/12/01 02:42:20;;;;;;;0.70;0.50;;;4.90;81.50;;;;;;5052642;28;20051;-76
2021/12/01 02:44:47;;;;;;;0.40;0.40;;;4.90;81.50;;;;;;5052924;28;20029;-76
2021/12/01 02:47:13;;;;;;;3.15;0.50;;;4.90;81.50;;;;;;5053377;28;20039;-76
2021/12/01 02:49:38;;;;;;;0.52;0.43;;;5.00;81.50;;;;;;5052772;28;20021;-76
2021/12/01 02:52:05;;;;;;;0.73;0.32;;;4.90;81.50;;;;;;5052776;28;20069;-76
2021/12/01 02:54:32;;;;;;;1.48;0.30;;;5.00;81.20;;;;;;5052787;28;20017;-75
2021/12/01 02:56:58;;;;;;;0.35;0.32;;;5.00;81.30;;;;;;5052691;28;20466;-76
2021/12/01 02:59:24;;;;;;;0.47;0.30;;;5.00;81.10;;;;;;5052629;28;20025;-78
2021/12/01 03:01:51;;;;;;;0.20;0.20;;;5.00;81.00;;;;;;5052528;28;20052;-76
2021/12/01 03:04:17;;;;;;;0.38;0.38;;;5.00;80.80;;;;;;5052706;28;20485;-74
2021/12/01 03:06:49;;;;;;;0.82;0.22;;;5.10;81.00;;;;;;5052670;28;20031;-75
2021/12/01 03:09:15;;;;;;;0.43;0.38;;;5.10;80.90;;;;;;5052450;28;20059;-77
2021/12/01 03:11:44;;;;;;;0.20;0.20;;;5.10;80.90;;;;;;5052480;28;20053;-77
2021/12/01 03:14:12;;;;;;;0.30;0.30;;;5.20;80.70;;;;;;5052474;28;20075;-77
2021/12/01 03:16:38;;;;;;;0.20;0.20;;;5.20;80.30;;;;;;5052610;28;20021;-79
2021/12/01 03:19:04;;;;;;;0.43;0.20;;;5.20;80.10;;;;;;5052551;28;20040;-77
2021/12/01 03:21:30;;;;;;;1.48;0.20;;;5.30;80.40;;;;;;5052650;28;20381;-77
2021/12/01 03:23:56;;;;;;;0.63;0.30;;;5.30;80.30;;;;;;5053715;28;20017;-76
2021/12/01 03:26:21;;;;;;;0.10;0.10;;;5.30;80.20;;;;;;5056077;28;20100;-77
2021/12/01 03:28:47;;;;;;;0.50;0.20;;;5.30;80.20;;;;;;5055885;28;20044;-78
2021/12/01 03:31:13;;;;;;;0.20;0.10;;;5.30;81.20;;;;;;5056061;28;20056;-79
2021/12/01 03:33:39;;;;;;;0.25;0.10;;;5.40;80.10;;;;;;5055873;28;20110;-77
2021/12/01 03:36:04;;;;;;;0.95;0.40;;;5.40;80.00;;;;;;5055884;28;20331;-77
2021/12/01 03:38:30;;;;;;;0.28;0.22;;;5.50;80.10;;;;;;5056038;28;20040;-77
2021/12/01 03:40:57;;;;;;;0.98;0.35;;;5.50;79.90;;;;;;5056030;28;20017;-77
2021/12/01 03:43:23;;;;;;;0.20;0.20;;;5.50;79.80;;;;;;5055886;28;20527;-77
2021/12/01 03:45:49;;;;;;;0.40;0.22;;;5.50;79.70;;;;;;5055878;28;20037;-79
2021/12/01 03:48:16;;;;;;;1.08;0.20;;;5.50;79.80;;;;;;5055864;28;20027;-77
2021/12/01 03:50:42;;;;;;;0.47;0.25;;;5.50;79.90;;;;;;5055561;28;20024;-77
2021/12/01 03:53:08;;;;;;;0.40;0.30;;;5.50;80.00;;;;;;5055378;28;20032;-77
2021/12/01 03:55:35;;;;;;;0.40;0.30;;;5.50;80.10;;;;;;5055573;28;20469;-80
2021/12/01 03:58:02;;;;;;;0.32;0.20;;;5.50;80.00;;;;;;5058692;28;20021;-77
2021/12/01 04:00:27;;;;;;;0.15;0.10;;;5.50;80.20;;;;;;5055517;28;20066;-77
2021/12/01 04:02:53;;;;;;;0.30;0.13;;;5.50;80.10;;;;;;5055490;28;20108;-76
2021/12/01 04:05:18;;;;;;;0.20;0.20;;;5.50;80.30;;;;;;5055450;28;20017;-76
2021/12/01 04:07:44;;;;;;;0.35;0.20;;;5.50;79.80;;;;;;5055287;28;20159;-75
2021/12/01 04:10:13;;;;;;;0.80;0.28;;;5.50;79.70;;;;;;5037479;28;20021;-75
2021/12/01 04:12:39;;;;;;;0.38;0.20;;;5.50;79.60;;;;;;5055187;28;20040;-76
2021/12/01 04:15:05;;;;;;;0.35;0.20;;;5.50;79.70;;;;;;5037354;28;20029;-76
2021/12/01 04:17:31;;;;;;;0.20;0.20;;;5.60;79.70;;;;;;5055164;28;20068;-76
2021/12/01 04:19:57;;;;;;;0.20;0.10;;;5.60;79.50;;;;;;5055167;28;20049;-77
2021/12/01 04:22:22;;;;;;;0.68;0.20;;;5.60;79.40;;;;;;5037323;28;20033;-76
2021/12/01 04:24:48;;;;;;;0.10;0.10;;;5.70;79.50;;;;;;5055094;28;20025;-76
2021/12/01 04:27:14;;;;;;;0.10;0.10;;;5.70;79.40;;;;;;5055130;28;20469;-80
2021/12/01 04:29:40;;;;;;;0.20;0.10;;;5.80;79.10;;;;;;5037058;28;20048;-76
2021/12/01 04:32:08;;;;;;;0.30;0.20;;;5.70;79.10;;;;;;5054992;28;20029;-77
2021/12/01 04:34:34;;;;;;;1.20;0.20;;;5.70;79.20;;;;;;5054806;28;20017;-77
2021/12/01 04:37:00;;;;;;;0.30;0.10;;;5.80;78.60;;;;;;5054810;28;20473;-77
2021/12/01 04:39:25;;;;;;;1.27;0.38;;;5.80;78.50;;;;;;5054571;28;20023;-77
2021/12/01 04:41:52;;;;;;;0.55;0.30;;;5.80;78.70;;;;;;5054887;28;20481;-77
2021/12/01 04:44:20;;;;;;;0.40;0.20;;;5.80;78.60;;;;;;5054626;28;20013;-77
2021/12/01 04:46:47;;;;;;;0.15;0.10;;;5.80;78.70;;;;;;5036603;28;20524;-78
2021/12/01 04:49:19;;;;;;;0.22;0.13;;;5.80;78.70;;;;;;5054502;28;20429;-77
2021/12/01 04:51:48;;;;;;;0.32;0.20;;;5.80;78.70;;;;;;5036598;28;20045;-77
2021/12/01 04:54:15;;;;;;;0.32;0.15;;;5.80;78.70;;;;;;5054767;28;20381;-78
2021/12/01 04:56:43;;;;;;;0.50;0.40;;;5.80;78.50;;;;;;5054468;28;20027;-77
2021/12/01 04:59:09;;;;;;;0.20;0.10;;;5.70;78.70;;;;;;5054397;28;20075;-76
2021/12/01 05:01:36;;;;;;;0.47;0.13;;;5.70;78.70;;;;;;5054275;28;20021;-77
2021/12/01 05:04:03;;;;;;;1.95;0.93;;;5.80;78.40;;;;;;5054246;28;20055;-78
2021/12/01 05:06:28;;;;;;;1.50;0.82;;;5.80;78.10;;;;;;5036095;28;20392;-76
2021/12/01 05:08:54;;;;;;;0.52;0.40;;;5.90;78.00;;;;;;5054267;28;20028;-76
2021/12/01 05:11:20;;;;;;;0.20;0.10;;;5.80;77.90;;;;;;5054275;28;20025;-77
2021/12/01 05:13:46;;;;;;;0.28;0.10;;;5.80;77.90;;;;;;5036223;28;20033;-77
2021/12/01 05:16:11;;;;;;;0.08;0.08;;;5.80;78.10;;;;;;5054239;28;20056;-78
2021/12/01 05:18:37;;;;;;;1.85;0.10;;;5.80;78.00;;;;;;5053900;28;20029;-78
2021/12/01 05:21:03;;;;;;;0.70;0.20;;;5.80;78.00;;;;;;5052700;28;20036;-77
2021/12/01 05:23:30;;;;;;;0.40;0.20;;;5.80;77.90;;;;;;5053735;28;20028;-77
2021/12/01 05:25:55;;;;;;;0.65;0.20;;;5.90;77.80;;;;;;5053997;28;20070;-78
2021/12/01 05:28:21;;;;;;;0.38;0.20;;;5.90;77.10;;;;;;5053607;28;20103;-77
2021/12/01 05:30:47;;;;;;;0.75;0.22;;;5.90;77.00;;;;;;5054020;28;20032;-77
2021/12/01 05:33:14;;;;;;;0.93;0.30;;;5.90;77.00;;;;;;5054973;28;20039;-77
2021/12/01 05:35:42;;;;;;;0.30;0.10;;;5.90;76.90;;;;;;5053665;28;20100;-77
2021/12/01 05:38:08;;;;;;;0.63;0.03;;;6.00;76.40;;;;;;5053749;28;20021;-78
2021/12/01 05:40:34;;;;;;;1.95;0.13;;;5.90;76.30;;;;;;5053655;28;20035;-77
2021/12/01 05:43:00;;;;;;;0.73;0.05;;;6.00;76.10;;;;;;5053637;28;20103;-77
2021/12/01 05:45:26;;;;;;;0.30;0.20;;;5.90;76.30;;;;;;5053360;28;20027;-76
2021/12/01 05:47:51;;;;;;;0.13;0.13;;;5.90;76.50;;;;;;5052762;28;20469;-77
2021/12/01 05:50:18;;;;;;;0.80;0.20;;;5.90;76.30;;;;;;5053102;28;20428;-77
2021/12/01 05:52:44;;;;;;;0.30;0.15;;;5.90;76.20;;;;;;5053141;28;20072;-77
2021/12/01 05:55:10;;;;;;;1.85;0.22;;;6.00;76.00;;;;;;5053233;28;20052;-78
2021/12/01 05:57:36;;;;;;;0.38;0.30;;;5.90;75.60;;;;;;5053162;28;20025;-77
2021/12/01 06:00:04;;;;;;;0.45;0.28;;;5.90;75.70;;;;;;5053116;28;20054;-78
2021/12/01 06:02:30;;;;;;;0.32;0.20;;;5.90;75.50;;;;;;5053076;28;20104;-77
2021/12/01 06:04:55;;;;;;;0.10;0.10;;;5.90;75.70;;;;;;5052989;28;20163;-77
2021/12/01 06:07:21;;;;;;;2.05;0.43;;;5.90;75.40;;;;;;5052908;28;20033;-77
2021/12/01 06:09:46;;;;;;;0.45;0.30;;;6.00;74.30;;;;;;5052740;28;20056;-76
2021/12/01 06:12:13;;;;;;;0.52;0.10;;;6.00;74.30;;;;;;5052355;28;20037;-77
2021/12/01 06:14:43;;;;;;;0.28;0.10;;;6.00;74.40;;;;;;5052362;28;20365;-77
2021/12/01 06:17:11;;;;;;;0.20;0.13;;;6.00;74.40;;;;;;5052502;28;20029;-76
2021/12/01 06:19:37;;;;;;;0.43;0.10;;;5.90;74.50;;;;;;5052429;28;20047;-78
2021/12/01 06:22:03;;;;;;;0.28;0.10;;;5.90;74.20;;;;;;5052498;28;20032;-75
2021/12/01 06:24:29;;;;;;;1.85;0.35;;;5.90;74.40;;;;;;5052866;28;20025;-75
2021/12/01 06:26:55;;;;;;;1.10;0.22;;;6.00;74.30;;;;;;5052340;28;20023;-77
2021/12/01 06:29:21;;;;;;;0.57;0.40;;;5.90;74.30;;;;;;5051649;28;20121;-78
2021/12/01 06:31:47;;;;;;;0.70;0.28;;;5.90;74.10;;;;;;5052196;28;20488;-75
2021/12/01 06:34:12;;;;;;;0.10;0.10;;;5.90;73.50;;;;;;5052547;28;20706;-74
2021/12/01 06:36:38;;;;;;;0.20;0.10;;;5.90;74.10;;;;;;5052402;28;20029;-78
2021/12/01 06:39:05;;;;;;;0.35;0.10;;;6.00;73.00;;;;;;5052648;28;20403;-79
2021/12/01 06:41:30;;;;;;;1.35;0.50;;;6.10;72.60;;;;;;5052682;28;20021;-77
2021/12/01 06:43:56;;;;;;;0.28;0.10;;;6.00;72.70;;;;;;5052606;28;20033;-76
2021/12/01 06:46:22;;;;;;;0.80;0.28;;;6.10;72.70;;;;;;5052678;28;20021;-79
2021/12/01 06:48:48;;;;;;;0.57;0.20;;;6.00;72.80;;;;;;5034638;28;20029;-78
2021/12/01 06:51:14;;;;;;;0.10;0.10;;;6.00;73.00;;;;;;5052393;28;20423;-74
2021/12/01 06:53:40;;;;;;;0.65;0.32;;;6.00;73.30;;;;;;5052382;28;20028;-75
2021/12/01 06:56:06;;;;;;;2.92;0.35;;;6.00;73.50;;;;;;5052480;28;20021;-74
2021/12/01 06:58:32;;;;;;;0.68;0.30;;;5.90;73.70;;;;;;5053006;28;20074;-74
2021/12/01 07:00:58;;;;;;;0.20;0.10;;;5.90;73.70;;;;;;5038626;28;20447;-78
2021/12/01 07:03:23;;;;;;;0.52;0.30;;;5.90;73.70;;;;;;5056482;28;20171;-77
2021/12/01 07:05:49;;;;;;;0.65;0.25;;;5.90;74.00;;;;;;5056305;28;20048;-75
2021/12/01 07:08:14;;;;;;;0.52;0.20;;;5.90;74.00;;;;;;5056314;28;20027;-78
2021/12/01 07:10:40;;;;;;;0.30;0.20;;;5.90;73.70;;;;;;5056323;28;20028;-76
2021/12/01 07:13:06;;;;;;;0.22;0.10;;;5.90;73.80;;;;;;5056349;28;20033;-77
2021/12/01 07:15:31;;;;;;;0.63;0.20;;;5.90;73.90;;;;;;5056122;28;20025;-77
2021/12/01 07:17:57;;;;;;;0.10;0.10;;;5.90;73.90;;;;;;5056378;28;20052;-77
2021/12/01 07:20:23;;;;;;;1.60;0.68;;;5.90;73.90;;;;;;5056266;28;20017;-75
2021/12/01 07:22:49;;;;;;;4.13;0.40;;;5.90;74.00;;;;;;5056302;28;20033;-75
2021/12/01 07:25:15;;;;;;;0.10;0.10;;;6.00;74.00;;;;;;5056421;28;20025;-76
2021/12/01 07:27:41;;;;;;;0.45;0.20;;;6.00;74.00;;;;;;5056147;28;20033;-75
2021/12/01 07:30:07;;;;;;;0.95;0.20;;;6.00;74.30;;;;;;5055754;28;20494;-76
2021/12/01 07:32:33;;;;;;;0.55;0.20;;;5.90;74.30;;;;;;5055887;28;20123;-76
2021/12/01 07:34:59;;;;;;;1.13;0.17;;;5.90;74.30;;;;;;5055727;28;20021;-76
2021/12/01 07:37:25;;;;;;;0.40;0.10;;;5.90;74.40;;;;;;5056003;28;20113;-76
2021/12/01 07:39:52;;;;;;;0.10;0.10;;;6.00;74.10;;;;;;5055789;28;20055;-75
2021/12/01 07:42:18;;;;;;;0.20;0.10;;;6.10;73.70;;;;;;5055757;28;20025;-76
2021/12/01 07:44:44;;;;;;;0.30;0.10;;;6.20;73.50;;;;;;5055679;28;20108;-76
2021/12/01 07:47:11;;;;;;;1.17;0.30;;;6.20;73.50;;;;;;5055837;28;20418;-76
2021/12/01 07:49:37;;;;;;;1.10;0.35;;;6.20;73.50;;;;;;5055462;28;20025;-76
2021/12/01 07:52:05;;;;;;;1.27;0.10;;;6.20;73.50;;;;;;5055574;28;20452;-77
2021/12/01 07:54:32;;;;;;;0.73;0.10;;;6.30;73.30;;;;;;5055469;28;20541;-79
2021/12/01 07:56:58;;;;;;;0.10;0.10;;;6.30;74.00;;;;;;5055577;28;20021;-77
2021/12/01 07:59:23;;;;;;;0.05;0.05;;;6.40;73.00;;;;;;5055538;28;20033;-77
2021/12/01 08:01:50;;;;;;;0.10;0.10;;;6.40;73.10;;;;;;5055425;28;20033;-77
2021/12/01 08:04:15;;;;;;;0.20;0.10;;;6.40;73.00;;;;;;5037427;28;20017;-77
2021/12/01 08:06:43;;;;;;;1.85;0.13;;;6.40;73.30;;;;;;5055177;28;20048;-78
2021/12/01 08:09:09;;;;;;;0.40;0.15;;;6.40;73.60;;;;;;5036578;28;20117;-76
2021/12/01 08:11:35;;;;;;;0.10;0.00;;;6.40;73.90;;;;;;5054939;28;20116;-76
2021/12/01 08:14:01;;;;;;;0.20;0.10;;;6.60;74.00;;;;;;5055156;28;20096;-77
2021/12/01 08:16:27;;;;;;;1.42;0.20;;;6.70;73.80;;;;;;5054932;28;20021;-76
2021/12/01 08:18:55;;;;;;;0.45;0.10;;;6.80;73.30;;;;;;5054870;28;20048;-77
2021/12/01 08:21:22;;;;;;;0.10;0.10;;;6.80;73.10;;;;;;5054793;28;20024;-77
2021/12/01 08:23:48;;;;;;;0.15;0.15;;;6.90;73.20;;;;;;5054700;28;20064;-76
2021/12/01 08:26:14;;;;;;;0.22;0.20;;;6.90;73.10;;;;;;5054803;28;20024;-75
2021/12/01 08:28:41;;;;;;;0.47;0.10;;;7.00;73.30;;;;;;5054612;28;20598;-77
2021/12/01 08:31:08;;;;;;;0.30;0.17;;;7.00;73.20;;;;;;5054573;28;20047;-76
2021/12/01 08:33:33;;;;;;;0.52;0.13;;;6.90;73.50;;;;;;5054439;28;20040;-81
2021/12/01 08:35:59;;;;;;;0.28;0.28;;;6.90;73.80;;;;;;5054551;28;20021;-80
2021/12/01 08:38:25;;;;;;;1.00;0.10;;;7.10;74.40;;;;;;5054553;28;20032;-80
2021/12/01 08:40:50;;;;;;;0.90;0.10;;;7.20;73.50;;;;;;5036768;28;20029;-80
2021/12/01 08:43:16;;;;;;;0.20;0.20;;;7.20;73.10;;;;;;5054180;28;20418;-74
2021/12/01 08:45:41;;;;;;;0.10;0.10;;;7.20;73.00;;;;;;5054214;28;20025;-77
2021/12/01 08:48:07;;;;;;;0.55;0.20;;;7.10;73.60;;;;;;5054245;28;20064;-76
2021/12/01 08:50:33;;;;;;;0.10;0.10;;;7.10;73.80;;;;;;5036406;28;20036;-77
2021/12/01 08:52:59;;;;;;;0.20;0.10;;;7.10;73.90;;;;;;5036405;28;20037;-76
2021/12/01 08:55:26;;;;;;;0.68;0.20;;;7.10;74.10;;;;;;5036492;28;20063;-76
2021/12/01 08:57:52;;;;;;;0.10;0.10;;;7.20;75.20;;;;;;5054296;28;20104;-76
2021/12/01 09:00:20;;;;;;;0.55;0.15;;;7.20;74.10;;;;;;5054145;28;20025;-76
2021/12/01 09:02:46;;;;;;;0.20;0.10;;;7.10;74.50;;;;;;5053878;28;20017;-77
2021/12/01 09:05:12;;;;;;;0.20;0.20;;;7.10;75.30;;;;;;5054061;28;20032;-78
2021/12/01 09:07:38;;;;;;;1.55;0.20;;;7.10;74.50;;;;;;5053898;28;20036;-76
2021/12/01 09:10:05;;;;;;;0.17;0.10;;;7.30;74.40;;;;;;5036140;28;20025;-77
2021/12/01 09:12:30;;;;;;;0.17;0.10;;;7.60;73.40;;;;;;5053698;28;20118;-78
2021/12/01 09:14:57;;;;;;;0.17;0.17;;;7.60;73.00;;;;;;5053855;28;20504;-77
2021/12/01 09:17:24;;;;;;;0.28;0.28;;;7.50;73.20;;;;;;5053716;28;20021;-76
2021/12/01 09:19:50;;;;;;;0.60;0.10;;;7.50;73.30;;;;;;5053273;28;20025;-76
2021/12/01 09:22:17;;;;;;;0.38;0.20;;;7.60;73.60;;;;;;5052638;28;20025;-76
2021/12/01 09:24:43;;;;;;;0.10;0.10;;;7.60;73.60;;;;;;5035692;28;20047;-76
2021/12/01 09:27:09;;;;;;;0.00;0.00;;;7.60;73.60;;;;;;5053493;28;20033;-76
2021/12/01 09:29:35;;;;;;;0.03;0.00;;;7.70;73.70;;;;;;5053335;28;20455;-76
2021/12/01 09:32:01;;;;;;;0.47;0.10;;;7.70;73.70;;;;;;5053178;28;20033;-75
2021/12/01 09:34:27;;;;;;;0.40;0.20;;;7.60;73.70;;;;;;5053392;28;20519;-75
2021/12/01 09:36:53;;;;;;;0.10;0.10;;;7.60;73.80;;;;;;5053205;28;20021;-76
2021/12/01 09:39:18;;;;;;;0.20;0.20;;;7.50;74.00;;;;;;5053101;28;20477;-76
2021/12/01 09:41:45;;;;;;;0.57;0.30;;;7.50;74.00;;;;;;5053138;28;20052;-75
2021/12/01 09:44:10;;;;;;;0.45;0.20;;;7.50;74.10;;;;;;5035366;28;20021;-75
2021/12/01 09:46:36;;;;;;;0.30;0.10;;;7.50;75.10;;;;;;5035394;28;20032;-76
2021/12/01 09:49:03;;;;;;;0.52;0.20;;;7.60;74.20;;;;;;5035404;28;20052;-76
2021/12/01 09:51:28;;;;;;;0.57;0.30;;;7.60;74.00;;;;;;5034883;28;20477;-76
2021/12/01 09:53:56;;;;;;;0.57;0.20;;;7.70;73.90;;;;;;5035354;28;20033;-75
2021/12/01 09:56:22;;;;;;;0.20;0.20;;;7.80;73.60;;;;;;5044633;28;20020;-75
2021/12/01 09:58:47;;;;;;;0.43;0.20;;;8.10;72.90;;;;;;5035031;28;20033;-77
2021/12/01 10:01:16;;;;;;;0.50;0.20;;;8.30;71.80;;;;;;5035093;28;20044;-76
2021/12/01 10:03:43;;;;;;;0.30;0.20;;;8.50;70.90;;;;;;5035079;28;20104;-76
2021/12/01 10:06:28;;;;;;;0.60;0.38;;;8.40;70.40;;;;;;5034842;28;20041;-76
2021/12/01 10:09:04;;;;;;;0.63;0.30;;;8.40;70.80;;;;;;5021121;28;20131;-76
2021/12/01 10:11:33;;;;;;;0.20;0.20;;;8.50;70.70;;;;;;5052774;28;20020;-76
2021/12/01 10:14:05;;;;;;;0.30;0.20;;;8.40;70.90;;;;;;5035114;28;20404;-77
2021/12/01 10:16:37;;;;;;;1.17;0.40;;;8.60;70.90;;;;;;5035207;28;20025;-73
2021/12/01 10:19:09;;;;;;;0.40;0.20;;;8.90;70.10;;;;;;5035646;28;20569;-76
2021/12/01 10:21:40;;;;;;;0.65;0.40;;;9.00;69.10;;;;;;5041661;28;20021;-74
2021/12/01 10:24:07;;;;;;;0.10;0.10;;;9.40;68.20;;;;;;5037186;28;20025;-75
2021/12/01 10:26:42;;;;;;;0.28;0.10;;;9.70;66.80;;;;;;5062050;28;20036;-75
2021/12/01 10:29:13;;;;;;;1.73;0.00;;;9.90;65.50;;;;;;5037041;28;20045;-74
2021/12/01 10:31:43;;;;;;;1.33;0.10;;;10.30;64.20;;;;;;5034878;28;20033;-75
2021/12/01 10:34:15;;;;;;;0.47;0.20;;;10.40;63.20;;;;;;5035119;28;20393;-76
2021/12/01 10:36:42;;;;;;;1.45;0.20;;;10.60;63.30;;;;;;5037567;28;20024;-76
2021/12/01 10:39:14;;;;;;;0.57;0.30;;;10.50;62.80;;;;;;5037120;28;20434;-75
2021/12/01 10:41:42;;;;;;;0.38;0.20;;;10.30;64.10;;;;;;5035019;28;20104;-75
2021/12/01 10:44:14;;;;;;;0.35;0.30;;;10.30;64.60;;;;;;5018721;28;20167;-76
2021/12/01 10:46:46;;;;;;;0.63;0.20;;;10.20;64.50;;;;;;5034706;28;20479;-76
2021/12/01 10:49:12;;;;;;;0.20;0.20;;;10.10;64.60;;;;;;5034501;28;20140;-76
2021/12/01 10:51:40;;;;;;;0.35;0.25;;;10.00;65.00;;;;;;5034574;28;20040;-77
2021/12/01 10:54:19;;;;;;;1.80;0.20;;;9.70;66.40;;;;;;5034694;28;20029;-76
2021/12/01 10:56:46;;;;;;;3.10;0.30;;;9.50;67.80;;;;;;5034523;28;20017;-77
2021/12/01 10:59:14;;;;;;;0.95;0.20;;;9.30;69.30;;;;;;5034197;28;20044;-75
2021/12/01 11:01:40;;;;;;;0.22;0.13;;;9.20;69.90;;;;;;5051639;28;20032;-76
2021/12/01 11:04:09;;;;;;;1.45;0.47;;;8.80;71.10;;;;;;5033914;28;20047;-76
2021/12/01 11:06:40;;;;;;;1.40;0.45;;;8.60;72.20;;;;;;5051516;28;20174;-76
2021/12/01 11:09:07;;;;;;;0.75;0.35;;;8.60;72.80;;;;;;5033843;28;20385;-76
2021/12/01 11:11:45;;;;;;;0.45;0.25;;;8.50;73.20;;;;;;5053577;28;20029;-75
2021/12/01 11:14:17;;;;;;;0.45;0.28;;;8.30;73.60;;;;;;5030446;28;20029;-75
2021/12/01 11:16:44;;;;;;;1.15;0.40;;;8.40;74.10;;;;;;5034204;28;20025;-76
2021/12/01 11:19:11;;;;;;;2.05;0.40;;;8.30;74.40;;;;;;5033802;28;20052;-78
2021/12/01 11:21:38;;;;;;;0.43;0.22;;;8.30;74.70;;;;;;5034083;28;20079;-79
2021/12/01 11:24:12;;;;;;;0.57;0.30;;;8.20;74.80;;;;;;5034161;28;20021;-76
2021/12/01 11:26:43;;;;;;;1.52;0.47;;;8.20;75.20;;;;;;5033800;28;20021;-75
2021/12/01 11:29:12;;;;;;;0.35;0.32;;;8.10;75.50;;;;;;5033641;28;20099;-76
2021/12/01 11:31:42;;;;;;;0.40;0.30;;;8.10;76.60;;;;;;5033710;28;20360;-77
2021/12/01 11:34:13;;;;;;;0.98;0.65;;;8.10;77.20;;;;;;5034404;28;20384;-76
2021/12/01 11:36:45;;;;;;;0.65;0.30;;;8.10;77.90;;;;;;5051688;28;20029;-77
2021/12/01 11:39:18;;;;;;;0.93;0.40;;;8.10;78.50;;;;;;5034197;28;20490;-77
2021/12/01 11:41:51;;;;;;;0.68;0.30;;;8.10;79.30;;;;;;5034203;28;20039;-77
2021/12/01 11:44:18;;;;;;;0.77;0.40;;;8.10;79.20;;;;;;5052267;28;20058;-77
2021/12/01 11:46:47;;;;;;;0.30;0.30;;;8.00;79.60;;;;;;5055270;28;20489;-78
2021/12/01 11:49:16;;;;;;;0.47;0.40;;;8.00;80.00;;;;;;5055125;28;20025;-77
2021/12/01 11:51:50;;;;;;;0.40;0.32;;;8.00;79.10;;;;;;5036857;28;20046;-75
2021/12/01 11:54:21;;;;;;;0.35;0.15;;;8.00;79.90;;;;;;5055642;28;20037;-76
2021/12/01 11:56:57;;;;;;;3.83;2.20;;;8.10;79.60;;;;;;5037499;28;20017;-78
2021/12/01 11:59:25;;;;;;;0.75;0.40;;;8.50;78.70;;;;;;5033069;28;20114;-77
2021/12/01 12:01:51;;;;;;;0.30;0.30;;;9.10;75.60;;;;;;5056040;28;20584;-75
2021/12/01 12:04:23;;;;;;;0.30;0.30;;;9.10;73.20;;;;;;5055015;28;20388;-75
2021/12/01 12:06:57;;;;;;;0.75;0.40;;;8.90;73.70;;;;;;5037111;28;20144;-75
2021/12/01 12:09:23;;;;;;;1.50;0.33;;;8.80;74.50;;;;;;5055275;28;20107;-79
2021/12/01 12:12:20;;;;;;;0.43;0.35;;;8.80;74.80;;;;;;5037234;28;20298;-77
2021/12/01 12:14:46;;;;;;;0.30;0.25;;;9.20;72.80;;;;;;5037212;28;20036;-77
2021/12/01 12:17:33;;;;;;;0.73;0.28;;;9.40;72.60;;;;;;5037381;28;20029;-75
2021/12/01 12:20:14;;;;;;;1.08;0.22;;;9.60;71.80;;;;;;5037250;28;20056;-75
2021/12/01 12:22:43;;;;;;;0.82;0.20;;;9.60;71.30;;;;;;5054894;28;20105;-74
2021/12/01 12:25:30;;;;;;;0.22;0.22;;;9.50;70.60;;;;;;5037228;28;20028;-75
2021/12/01 12:27:56;;;;;;;0.50;0.20;;;9.20;72.30;;;;;;5036500;28;20056;-74
2021/12/01 12:30:34;;;;;;;0.55;0.20;;;9.00;73.00;;;;;;5036991;28;20075;-76
2021/12/01 12:33:21;;;;;;;1.92;0.20;;;8.70;73.00;;;;;;5036970;28;20032;-79
2021/12/01 12:35:49;;;;;;;0.20;0.20;;;8.70;73.30;;;;;;5036824;28;20067;-76
2021/12/01 12:38:16;;;;;;;0.40;0.20;;;8.60;73.80;;;;;;5037120;28;20393;-76
2021/12/01 12:40:44;;;;;;;0.35;0.30;;;8.50;74.20;;;;;;5054561;28;20036;-76
2021/12/01 12:43:22;;;;;;;0.60;0.30;;;8.50;74.30;;;;;;5036816;28;20029;-75
2021/12/01 12:46:15;;;;;;;0.28;0.28;;;8.50;74.50;;;;;;5036591;28;20116;-76
2021/12/01 12:48:48;;;;;;;0.70;0.47;;;8.40;75.00;;;;;;5036618;28;20033;-76
2021/12/01 12:51:18;;;;;;;1.05;0.40;;;8.40;75.60;;;;;;5036473;28;20025;-76
2021/12/01 12:54:00;;;;;;;0.40;0.30;;;8.40;76.00;;;;;;5036546;28;20076;-75
2021/12/01 12:56:28;;;;;;;0.90;0.43;;;8.30;76.60;;;;;;5036328;28;20049;-76
2021/12/01 12:59:21;;;;;;;2.03;0.60;;;8.30;76.50;;;;;;5036057;28;20112;-76
2021/12/01 13:02:10;;;;;;;0.75;0.43;;;8.30;77.50;;;;;;5035783;28;20025;-76
2021/12/01 13:04:54;;;;;;;0.50;0.50;;;8.30;77.70;;;;;;5027728;28;20033;-76
2021/12/01 13:07:29;;;;;;;0.50;0.20;;;8.20;77.90;;;;;;5036005;28;20028;-76
2021/12/01 13:10:17;;;;;;;0.60;0.38;;;8.20;77.10;;;;;;5036197;28;20111;-75